Time;durP1;ratioP1;P1;durP2;ratioP2;P2;SDS_P1;SDS_P2;PMS_P1;PMS_P2;Temp;Humidity;BMP_temperature;BMP_pressure;BME280_temperature;BME280_humidity;BME280_pressure;Samples;Min_cycle;Max_cycle;Signal;HPM_P1;HPM_P2
2024/02/06 00:00:56;;;;;;;0.70;0.30;;;22.70;43.30;;;;;;5048140;28;20044;-31
2024/02/06 00:03:22;;;;;;;0.43;0.32;;;22.70;42.70;;;;;;5042927;28;20037;-37
2024/02/06 00:05:48;;;;;;;0.55;0.38;;;22.60;42.60;;;;;;5046887;28;20533;-36
2024/02/06 00:08:15;;;;;;;0.68;0.30;;;22.60;42.60;;;;;;5052677;28;20061;-33
2024/02/06 00:10:41;;;;;;;0.68;0.40;;;22.60;42.70;;;;;;5068924;27;20040;-35
2024/02/06 00:13:07;;;;;;;0.30;0.30;;;22.60;42.70;;;;;;5135941;27;20034;-33
2024/02/06 00:15:33;;;;;;;0.30;0.22;;;22.50;42.80;;;;;;5132421;27;20061;-35
2024/02/06 00:17:59;;;;;;;0.40;0.40;;;22.60;42.80;;;;;;5131338;27;20027;-36
2024/02/06 00:20:25;;;;;;;0.60;0.40;;;22.70;42.80;;;;;;5136266;27;20031;-34
2024/02/06 00:22:51;;;;;;;0.47;0.38;;;22.60;42.70;;;;;;5129106;27;20176;-34
2024/02/06 00:25:17;;;;;;;0.32;0.30;;;22.60;42.70;;;;;;5137511;27;20032;-35
2024/02/06 00:27:44;;;;;;;0.43;0.40;;;22.60;42.70;;;;;;5136496;27;20038;-35
2024/02/06 00:30:10;;;;;;;0.55;0.30;;;22.60;42.80;;;;;;5132933;27;20069;-35
2024/02/06 00:32:36;;;;;;;0.70;0.40;;;22.50;42.70;;;;;;5137481;27;20110;-36
2024/02/06 00:35:02;;;;;;;0.28;0.20;;;22.50;42.80;;;;;;5131094;27;20300;-34
2024/02/06 00:37:31;;;;;;;0.50;0.45;;;22.60;42.80;;;;;;5133494;27;20031;-36
2024/02/06 00:39:58;;;;;;;0.75;0.50;;;22.60;42.70;;;;;;5136357;27;20023;-32
2024/02/06 00:42:24;;;;;;;0.33;0.33;;;22.60;42.70;;;;;;5134357;27;20026;-32
2024/02/06 00:44:50;;;;;;;0.55;0.47;;;22.60;42.70;;;;;;5132168;27;20032;-34
2024/02/06 00:47:16;;;;;;;0.70;0.38;;;22.60;42.70;;;;;;5131990;27;20075;-33
2024/02/06 00:49:43;;;;;;;1.42;0.43;;;22.50;42.60;;;;;;5134660;27;20027;-36
2024/02/06 00:52:09;;;;;;;1.27;0.50;;;22.50;42.70;;;;;;5137938;27;20042;-37
2024/02/06 00:54:36;;;;;;;0.60;0.50;;;22.60;42.80;;;;;;5138644;27;20306;-34
2024/02/06 00:57:02;;;;;;;1.80;0.38;;;22.60;42.70;;;;;;5130431;27;20031;-35
2024/02/06 00:59:28;;;;;;;0.68;0.35;;;22.60;42.80;;;;;;5129451;27;20011;-36
2024/02/06 01:01:54;;;;;;;0.70;0.35;;;22.50;42.70;;;;;;5127451;27;20035;-35
2024/02/06 01:04:21;;;;;;;0.90;0.50;;;22.50;42.70;;;;;;5135524;27;20091;-35
2024/02/06 01:06:47;;;;;;;1.30;0.43;;;22.50;42.70;;;;;;5133309;27;20048;-33
2024/02/06 01:09:13;;;;;;;0.50;0.32;;;22.40;42.70;;;;;;5137343;27;20023;-37
2024/02/06 01:11:40;;;;;;;0.98;0.40;;;22.50;42.80;;;;;;5130754;27;20527;-37
2024/02/06 01:14:06;;;;;;;0.50;0.40;;;22.50;42.80;;;;;;5140251;27;20046;-32
2024/02/06 01:16:32;;;;;;;1.45;0.70;;;22.50;42.80;;;;;;5139336;27;20038;-36
2024/02/06 01:18:58;;;;;;;0.73;0.35;;;22.50;42.80;;;;;;5133453;27;20096;-34
2024/02/06 01:21:25;;;;;;;2.17;0.60;;;22.40;42.70;;;;;;5140690;27;20038;-31
2024/02/06 01:23:51;;;;;;;0.40;0.40;;;22.40;42.70;;;;;;5131007;27;20034;-33
2024/02/06 01:26:17;;;;;;;0.77;0.47;;;22.50;42.80;;;;;;5131197;27;20034;-36
2024/02/06 01:28:43;;;;;;;0.45;0.38;;;22.50;42.80;;;;;;5134571;27;20130;-32
2024/02/06 01:31:15;;;;;;;1.45;0.57;;;22.50;42.80;;;;;;5134530;27;20030;-33
2024/02/06 01:33:41;;;;;;;0.68;0.45;;;22.50;42.80;;;;;;5131109;27;20046;-35
2024/02/06 01:36:08;;;;;;;1.33;0.50;;;22.40;42.80;;;;;;5128633;27;20035;-35
2024/02/06 01:38:34;;;;;;;0.47;0.40;;;22.40;42.80;;;;;;5137818;27;20020;-34
2024/02/06 01:41:00;;;;;;;0.50;0.43;;;22.30;42.80;;;;;;5141848;27;20037;-35
2024/02/06 01:43:26;;;;;;;1.10;0.50;;;22.40;42.90;;;;;;5133962;27;20058;-37
2024/02/06 01:45:54;;;;;;;1.35;0.30;;;22.40;42.90;;;;;;5135729;27;20083;-36
2024/02/06 01:48:20;;;;;;;0.73;0.43;;;22.40;42.90;;;;;;5135151;27;20121;-37
2024/02/06 01:50:47;;;;;;;0.60;0.30;;;22.40;43.50;;;;;;5102146;27;20115;-34
2024/02/06 01:53:13;;;;;;;0.70;0.40;;;22.30;43.00;;;;;;5138348;27;20049;-32
2024/02/06 01:55:39;;;;;;;0.50;0.40;;;22.30;43.00;;;;;;5116335;27;20027;-36
2024/02/06 01:58:05;;;;;;;1.10;0.40;;;22.30;43.00;;;;;;5138352;27;20015;-33
2024/02/06 02:00:33;;;;;;;0.50;0.35;;;22.30;43.00;;;;;;5132793;27;20027;-35
2024/02/06 02:02:59;;;;;;;0.80;0.30;;;22.30;43.00;;;;;;5135807;27;20090;-35
2024/02/06 02:05:25;;;;;;;2.25;0.50;;;22.30;43.00;;;;;;5138663;27;20027;-34
2024/02/06 02:07:51;;;;;;;0.75;0.50;;;22.30;43.00;;;;;;5144896;27;20024;-35
2024/02/06 02:10:18;;;;;;;0.45;0.32;;;22.30;43.00;;;;;;5136850;27;20069;-37
2024/02/06 02:12:44;;;;;;;0.70;0.40;;;22.20;42.90;;;;;;5142830;27;20035;-34
2024/02/06 02:15:11;;;;;;;1.07;0.40;;;22.30;43.00;;;;;;5132889;27;20061;-35
2024/02/06 02:17:38;;;;;;;1.58;0.40;;;22.30;42.90;;;;;;5127158;27;20035;-32
2024/02/06 02:20:06;;;;;;;1.55;0.55;;;22.30;42.90;;;;;;5130221;27;20019;-36
2024/02/06 02:22:32;;;;;;;0.50;0.40;;;22.30;43.00;;;;;;5134913;27;20039;-34
2024/02/06 02:24:58;;;;;;;0.67;0.50;;;22.20;43.00;;;;;;5118804;27;20015;-33
2024/02/06 02:27:24;;;;;;;0.63;0.50;;;22.20;43.00;;;;;;5134476;27;20117;-36
2024/02/06 02:29:53;;;;;;;0.40;0.28;;;22.20;43.00;;;;;;5132267;27;20465;-34
2024/02/06 02:32:19;;;;;;;1.95;0.45;;;22.20;43.10;;;;;;5133219;27;20039;-34
2024/02/06 02:34:48;;;;;;;1.95;0.50;;;22.30;43.10;;;;;;5119162;28;20035;-33
2024/02/06 02:37:15;;;;;;;2.15;0.50;;;22.30;43.20;;;;;;5138352;27;20035;-34
2024/02/06 02:39:41;;;;;;;0.93;0.50;;;22.20;43.10;;;;;;5153220;27;20027;-35
2024/02/06 02:42:08;;;;;;;2.93;0.40;;;22.20;43.20;;;;;;5128620;27;20036;-38
2024/02/06 02:44:34;;;;;;;1.02;0.57;;;22.10;43.10;;;;;;5136850;27;20035;-37
2024/02/06 02:47:20;;;;;;;1.50;0.50;;;22.20;43.10;;;;;;5131031;28;20031;-33
2024/02/06 02:49:46;;;;;;;0.90;0.50;;;22.20;43.10;;;;;;5032025;28;20092;-39
2024/02/06 02:52:13;;;;;;;0.40;0.40;;;22.20;43.20;;;;;;5031599;28;20080;-40
2024/02/06 02:54:39;;;;;;;0.70;0.35;;;22.20;43.10;;;;;;5031948;28;20050;-34
2024/02/06 02:57:06;;;;;;;0.40;0.32;;;22.20;43.20;;;;;;5031491;28;20045;-34
2024/02/06 02:59:33;;;;;;;0.52;0.40;;;22.10;43.20;;;;;;5030952;28;20053;-36
2024/02/06 03:01:59;;;;;;;0.57;0.43;;;22.10;43.20;;;;;;5031317;28;20042;-36
2024/02/06 03:04:25;;;;;;;0.70;0.50;;;22.20;43.20;;;;;;5030776;28;20038;-36
2024/02/06 03:06:54;;;;;;;0.65;0.40;;;22.20;43.20;;;;;;5032287;28;20060;-33
2024/02/06 03:09:21;;;;;;;0.43;0.40;;;22.20;43.20;;;;;;5038724;28;20068;-37
2024/02/06 03:11:47;;;;;;;0.98;0.50;;;22.10;43.10;;;;;;5036333;28;20112;-34
2024/02/06 03:14:13;;;;;;;0.65;0.55;;;22.10;43.30;;;;;;5034301;28;20033;-38
2024/02/06 03:16:39;;;;;;;0.60;0.50;;;22.00;43.10;;;;;;5034729;28;20037;-36
2024/02/06 03:19:05;;;;;;;0.70;0.47;;;22.10;43.20;;;;;;5029650;28;20022;-36
2024/02/06 03:21:31;;;;;;;2.28;0.52;;;22.10;43.10;;;;;;5037843;28;20041;-36
2024/02/06 03:23:58;;;;;;;1.85;0.70;;;22.10;43.20;;;;;;5044735;28;20028;-34
2024/02/06 03:26:24;;;;;;;78.03;5.15;;;22.10;43.20;;;;;;5075464;27;20045;-35
2024/02/06 03:28:50;;;;;;;34.30;2.20;;;22.10;43.40;;;;;;5139817;27;20024;-35
2024/02/06 03:31:16;;;;;;;8.85;0.93;;;22.00;43.30;;;;;;5121181;27;20061;-35
2024/02/06 03:33:42;;;;;;;6.85;1.10;;;22.00;43.20;;;;;;5133359;27;20024;-37
2024/02/06 03:36:09;;;;;;;7.70;1.10;;;22.10;43.30;;;;;;5136140;27;20035;-34
2024/02/06 03:38:35;;;;;;;1.63;0.70;;;22.10;43.20;;;;;;5138678;27;20027;-37
2024/02/06 03:41:01;;;;;;;2.72;0.70;;;22.10;43.20;;;;;;5144319;27;20034;-37
2024/02/06 03:43:28;;;;;;;4.38;0.60;;;22.00;43.20;;;;;;5136322;27;20023;-41
2024/02/06 03:45:54;;;;;;;1.30;0.70;;;22.00;43.20;;;;;;5140808;27;20042;-33
2024/02/06 03:48:20;;;;;;;1.48;0.50;;;22.00;43.10;;;;;;5133487;27;20280;-33
2024/02/06 03:50:46;;;;;;;1.38;0.70;;;22.10;43.20;;;;;;5143074;27;20027;-34
2024/02/06 03:53:13;;;;;;;1.50;0.43;;;22.10;43.20;;;;;;5135982;27;20111;-35
2024/02/06 03:55:39;;;;;;;2.08;0.80;;;22.10;43.20;;;;;;5135253;27;20027;-36
2024/02/06 03:58:05;;;;;;;1.35;0.60;;;22.00;43.10;;;;;;5133355;27;20027;-35
2024/02/06 04:00:31;;;;;;;0.90;0.50;;;22.00;43.20;;;;;;5136565;27;20035;-36
2024/02/06 04:02:57;;;;;;;1.83;0.70;;;22.00;43.10;;;;;;5136865;27;20097;-35
2024/02/06 04:05:24;;;;;;;0.95;0.63;;;22.10;43.10;;;;;;5131344;27;20042;-35
2024/02/06 04:07:50;;;;;;;0.80;0.70;;;22.10;43.20;;;;;;5135046;27;20053;-33
2024/02/06 04:10:16;;;;;;;1.23;0.60;;;22.00;43.10;;;;;;5132818;27;20027;-34
2024/02/06 04:12:44;;;;;;;0.80;0.68;;;22.00;43.10;;;;;;5134396;27;20019;-34
2024/02/06 04:15:10;;;;;;;;;;;21.90;43.20;;;;;;5136607;27;20035;-33
2024/02/06 04:17:36;;;;;;;1.23;0.65;;;22.00;43.20;;;;;;5128370;27;19915;-30
2024/02/06 04:20:02;;;;;;;0.90;0.50;;;22.00;43.80;;;;;;5134250;27;20039;-36
2024/02/06 04:22:28;;;;;;;1.23;0.60;;;22.10;43.20;;;;;;5132774;27;20024;-36
2024/02/06 04:24:55;;;;;;;0.90;0.50;;;22.10;43.10;;;;;;5131225;27;20061;-36
2024/02/06 04:27:21;;;;;;;0.90;0.70;;;22.00;43.10;;;;;;5130518;27;20593;-33
2024/02/06 04:29:47;;;;;;;1.35;0.57;;;22.00;43.10;;;;;;5139111;27;20038;-37
2024/02/06 04:32:13;;;;;;;0.98;0.80;;;22.00;43.10;;;;;;5136527;27;20031;-36
2024/02/06 04:34:39;;;;;;;1.25;0.60;;;22.00;43.10;;;;;;5135254;27;20118;-33
2024/02/06 04:37:05;;;;;;;0.82;0.70;;;22.00;43.10;;;;;;5133003;27;20027;-35
2024/02/06 04:39:31;;;;;;;0.90;0.70;;;22.10;43.10;;;;;;5130917;27;20147;-35
2024/02/06 04:41:58;;;;;;;0.88;0.63;;;22.00;43.10;;;;;;5142199;27;20027;-34
2024/02/06 04:44:24;;;;;;;0.73;0.70;;;22.00;43.10;;;;;;5142654;27;20027;-36
2024/02/06 04:46:50;;;;;;;0.73;0.60;;;21.90;43.10;;;;;;5134287;27;20075;-32
2024/02/06 04:49:16;;;;;;;1.10;0.63;;;21.90;43.10;;;;;;5130137;27;20465;-35
2024/02/06 04:51:43;;;;;;;1.17;0.80;;;22.00;43.10;;;;;;5130292;27;20046;-34
2024/02/06 04:54:09;;;;;;;1.98;0.82;;;22.00;43.10;;;;;;5131904;27;20050;-34
2024/02/06 04:56:35;;;;;;;1.05;0.70;;;22.00;43.10;;;;;;5136147;27;20027;-34
2024/02/06 04:59:01;;;;;;;1.27;0.85;;;22.00;43.20;;;;;;5132092;27;20027;-33
2024/02/06 05:01:27;;;;;;;1.10;0.80;;;21.90;43.20;;;;;;5136788;27;20582;-35
2024/02/06 05:03:53;;;;;;;0.88;0.50;;;21.90;43.10;;;;;;5139951;27;20046;-37
2024/02/06 05:06:21;;;;;;;1.38;0.77;;;22.00;43.10;;;;;;5133249;27;20042;-35
2024/02/06 05:08:46;;;;;;;;;;;22.00;43.20;;;;;;5114317;27;20061;-33
2024/02/06 05:11:13;;;;;;;1.40;0.98;;;22.00;43.10;;;;;;5132326;27;19923;-32
2024/02/06 05:13:39;;;;;;;1.45;0.90;;;22.00;43.10;;;;;;5132691;27;20045;-33
2024/02/06 05:16:07;;;;;;;0.85;0.77;;;21.90;43.10;;;;;;5131684;27;20039;-32
2024/02/06 05:18:33;;;;;;;1.80;0.90;;;21.90;43.20;;;;;;5134376;27;20133;-38
2024/02/06 05:21:00;;;;;;;1.08;0.73;;;21.90;43.10;;;;;;5134929;27;20776;-34
2024/02/06 05:23:26;;;;;;;;;;;21.90;43.10;;;;;;5133607;27;20046;-35
2024/02/06 05:25:52;;;;;;;1.20;0.90;;;21.90;43.10;;;;;;5134020;27;19915;-33
2024/02/06 05:28:20;;;;;;;2.10;0.90;;;21.90;43.00;;;;;;5133368;27;20063;-36
2024/02/06 05:30:46;;;;;;;1.83;1.05;;;21.90;43.10;;;;;;5131682;27;20047;-33
2024/02/06 05:33:12;;;;;;;1.83;1.08;;;21.80;43.00;;;;;;5132702;27;20026;-37
2024/02/06 05:35:38;;;;;;;1.27;1.00;;;21.90;43.10;;;;;;5133056;27;20031;-35
2024/02/06 05:38:04;;;;;;;1.35;0.98;;;21.90;43.00;;;;;;5135829;27;20019;-37
2024/02/06 05:40:30;;;;;;;1.38;0.90;;;21.90;43.00;;;;;;5137350;27;20034;-36
2024/02/06 05:42:57;;;;;;;1.60;1.10;;;21.90;43.00;;;;;;5128775;27;20031;-35
2024/02/06 05:45:23;;;;;;;1.23;1.00;;;21.90;43.00;;;;;;5130678;27;20031;-37
2024/02/06 05:47:50;;;;;;;1.20;0.90;;;21.80;43.00;;;;;;5110873;27;20042;-33
2024/02/06 05:50:16;;;;;;;;;;;21.80;43.00;;;;;;5123437;27;20074;-31
2024/02/06 05:52:42;;;;;;;1.60;1.13;;;21.80;43.00;;;;;;5127630;27;19919;-35
2024/02/06 05:55:09;;;;;;;1.60;1.05;;;21.90;43.10;;;;;;5130729;27;20031;-32
2024/02/06 05:57:35;;;;;;;1.20;1.05;;;21.90;43.10;;;;;;5131289;27;20023;-34
2024/02/06 06:00:04;;;;;;;2.42;1.10;;;21.80;43.10;;;;;;5131322;27;20124;-39
2024/02/06 06:02:30;;;;;;;1.50;1.23;;;21.80;43.10;;;;;;5131139;27;20486;-36
2024/02/06 06:04:56;;;;;;;2.08;0.98;;;21.70;43.00;;;;;;5129379;27;20231;-33
2024/02/06 06:07:22;;;;;;;1.48;1.13;;;21.80;43.00;;;;;;5131316;27;20055;-34
2024/02/06 06:09:48;;;;;;;1.60;1.20;;;21.80;43.00;;;;;;5132140;27;20766;-37
2024/02/06 06:12:14;;;;;;;1.42;1.10;;;21.80;43.00;;;;;;5131528;27;20096;-36
2024/02/06 06:14:40;;;;;;;1.80;1.10;;;21.80;43.60;;;;;;5130829;27;20032;-35
2024/02/06 06:17:07;;;;;;;1.88;1.10;;;21.80;43.00;;;;;;5131626;27;20023;-34
2024/02/06 06:19:33;;;;;;;2.28;1.33;;;21.70;43.00;;;;;;5139094;27;20023;-34
2024/02/06 06:22:03;;;;;;;2.15;1.30;;;21.70;43.10;;;;;;5139151;27;20035;-42
2024/02/06 06:24:29;;;;;;;1.75;1.30;;;21.70;43.00;;;;;;5138604;27;20044;-36
2024/02/06 06:26:55;;;;;;;1.48;1.10;;;21.80;43.00;;;;;;5138029;27;20027;-33
2024/02/06 06:29:21;;;;;;;1.98;1.30;;;21.80;43.00;;;;;;5138606;27;20941;-36
2024/02/06 06:31:47;;;;;;;1.38;1.10;;;21.80;43.10;;;;;;5138156;27;20064;-34
2024/02/06 06:34:13;;;;;;;1.50;1.25;;;21.70;43.10;;;;;;5133246;27;20014;-35
2024/02/06 06:36:39;;;;;;;2.00;1.42;;;21.70;43.80;;;;;;5136757;27;20031;-36
2024/02/06 06:39:08;;;;;;;2.70;1.38;;;21.70;43.20;;;;;;5136500;27;20019;-36
2024/02/06 06:41:34;;;;;;;1.90;1.20;;;21.80;43.20;;;;;;5130954;27;20032;-35
2024/02/06 06:44:00;;;;;;;1.47;1.13;;;21.80;43.10;;;;;;5133112;27;20035;-36
2024/02/06 06:46:26;;;;;;;1.67;1.20;;;21.70;43.10;;;;;;5137440;27;20035;-35
2024/02/06 06:48:52;;;;;;;2.00;1.27;;;21.60;43.10;;;;;;5136835;27;20027;-35
2024/02/06 06:51:18;;;;;;;1.50;1.35;;;21.60;43.10;;;;;;5131980;28;20102;-34
2024/02/06 06:53:45;;;;;;;1.73;1.20;;;21.70;43.20;;;;;;5133665;27;20055;-37
2024/02/06 06:56:17;;;;;;;2.00;1.50;;;21.70;43.10;;;;;;5135373;28;20057;-35
2024/02/06 06:58:44;;;;;;;2.08;1.20;;;21.70;43.00;;;;;;5135096;27;20136;-31
2024/02/06 07:01:10;;;;;;;1.33;1.00;;;21.70;43.10;;;;;;5138904;27;20080;-35
2024/02/06 07:03:38;;;;;;;2.63;1.40;;;21.60;43.00;;;;;;5134659;27;20434;-35
2024/02/06 07:06:05;;;;;;;2.53;1.05;;;21.60;43.00;;;;;;5134631;27;20034;-36
2024/02/06 07:08:31;;;;;;;;;;;21.70;43.30;;;;;;5133047;27;20041;-35
2024/02/06 07:10:57;;;;;;;1.85;1.27;;;21.70;43.80;;;;;;5136333;27;20018;-36
2024/02/06 07:13:23;;;;;;;2.33;1.58;;;21.70;43.10;;;;;;5128342;28;20035;-37
2024/02/06 07:15:50;;;;;;;1.67;1.30;;;21.70;43.10;;;;;;5137889;27;20032;-33
2024/02/06 07:18:18;;;;;;;2.42;1.50;;;21.70;43.20;;;;;;5134955;27;20027;-34
2024/02/06 07:20:44;;;;;;;2.15;1.45;;;21.60;43.10;;;;;;5139327;27;20027;-34
2024/02/06 07:23:11;;;;;;;2.13;1.30;;;21.60;43.00;;;;;;5138777;27;20110;-36
2024/02/06 07:25:37;;;;;;;1.77;1.42;;;21.70;43.10;;;;;;5133318;28;20031;-33
2024/02/06 07:28:05;;;;;;;2.30;1.48;;;21.70;43.00;;;;;;5141213;28;20039;-37
2024/02/06 07:30:31;;;;;;;2.65;1.33;;;21.70;43.00;;;;;;5116799;28;20019;-35
2024/02/06 07:32:57;;;;;;;2.97;1.63;;;21.70;43.00;;;;;;5133695;28;20027;-35
2024/02/06 07:35:24;;;;;;;1.98;1.55;;;21.60;43.00;;;;;;5133012;27;20275;-36
2024/02/06 07:37:50;;;;;;;2.15;1.52;;;21.60;43.00;;;;;;5135654;27;20050;-37
2024/02/06 07:40:16;;;;;;;2.28;1.60;;;21.60;42.90;;;;;;5127551;27;20196;-32
2024/02/06 07:42:44;;;;;;;2.35;1.52;;;21.70;43.00;;;;;;5130045;27;20080;-34
2024/02/06 07:45:11;;;;;;;2.38;1.40;;;21.70;42.90;;;;;;5142295;27;20086;-35
2024/02/06 07:47:39;;;;;;;1.75;1.42;;;21.70;42.90;;;;;;5131520;27;20396;-34
2024/02/06 07:50:06;;;;;;;2.28;1.58;;;21.60;42.90;;;;;;5139563;27;20046;-34
2024/02/06 07:52:32;;;;;;;2.88;1.60;;;21.60;43.00;;;;;;5133428;27;20103;-36
2024/02/06 07:54:58;;;;;;;2.20;1.70;;;21.60;43.00;;;;;;5139074;27;20039;-36
2024/02/06 07:57:24;;;;;;;2.45;1.83;;;21.70;43.00;;;;;;5130557;27;20027;-35
2024/02/06 07:59:50;;;;;;;2.13;1.55;;;21.70;42.90;;;;;;5132329;27;20033;-36
2024/02/06 08:02:16;;;;;;;2.50;1.75;;;21.60;42.90;;;;;;5148545;27;20015;-35
2024/02/06 08:04:45;;;;;;;3.22;1.63;;;21.60;42.90;;;;;;5131358;27;20043;-31
2024/02/06 08:07:11;;;;;;;3.85;1.88;;;21.50;42.90;;;;;;5135018;27;20103;-36
2024/02/06 08:09:38;;;;;;;2.13;1.60;;;21.60;42.90;;;;;;5134617;27;20020;-36
2024/02/06 08:12:05;;;;;;;3.00;2.00;;;21.60;42.90;;;;;;5136588;27;22790;-36
2024/02/06 08:14:31;;;;;;;1.83;1.58;;;21.60;42.80;;;;;;5132413;27;20031;-37
2024/02/06 08:16:57;;;;;;;4.07;1.60;;;21.60;42.90;;;;;;5141555;27;20031;-31
2024/02/06 08:19:25;;;;;;;2.40;1.50;;;21.60;42.90;;;;;;5134386;27;20015;-37
2024/02/06 08:21:51;;;;;;;2.45;1.70;;;21.50;42.80;;;;;;5131475;27;20023;-35
2024/02/06 08:24:17;;;;;;;2.17;1.65;;;21.60;42.80;;;;;;5133378;27;20030;-32
2024/02/06 08:26:43;;;;;;;1.90;1.52;;;21.60;42.80;;;;;;5133116;27;20031;-32
2024/02/06 08:29:09;;;;;;;2.80;1.95;;;21.60;42.80;;;;;;5134342;27;20015;-32
2024/02/06 08:31:36;;;;;;;2.65;1.70;;;21.60;42.70;;;;;;5135860;27;20046;-35
2024/02/06 08:34:02;;;;;;;2.30;1.60;;;21.60;42.80;;;;;;5131457;27;20034;-36
2024/02/06 08:36:28;;;;;;;3.05;1.90;;;21.50;42.80;;;;;;5134924;27;20117;-37
2024/02/06 08:38:55;;;;;;;2.30;1.63;;;21.60;42.80;;;;;;5138638;27;20037;-35
2024/02/06 08:41:22;;;;;;;2.72;2.03;;;21.60;42.80;;;;;;5137202;27;20646;-32
2024/02/06 08:43:48;;;;;;;3.47;1.92;;;21.60;42.80;;;;;;5134192;27;20035;-34
2024/02/06 08:46:14;;;;;;;2.90;2.03;;;21.60;42.80;;;;;;5138330;27;20046;-36
2024/02/06 08:48:40;;;;;;;2.35;1.83;;;21.60;42.80;;;;;;5134522;27;20031;-35
2024/02/06 08:51:08;;;;;;;3.50;1.88;;;21.50;42.80;;;;;;5138076;27;20030;-36
2024/02/06 08:53:34;;;;;;;3.20;2.15;;;21.60;42.70;;;;;;5134947;27;20050;-34
2024/02/06 08:56:02;;;;;;;2.55;2.00;;;21.60;42.70;;;;;;5132406;27;20154;-35
2024/02/06 08:58:28;;;;;;;2.88;1.95;;;21.70;42.80;;;;;;5133193;27;20033;-34
2024/02/06 09:00:54;;;;;;;2.97;1.85;;;21.60;42.70;;;;;;5139077;27;20031;-35
2024/02/06 09:03:21;;;;;;;2.53;2.03;;;21.60;42.70;;;;;;5130271;27;20039;-33
2024/02/06 09:05:47;;;;;;;2.42;1.83;;;21.50;42.70;;;;;;5136975;27;20023;-35
2024/02/06 09:08:13;;;;;;;2.60;1.92;;;21.60;42.70;;;;;;5130327;27;20035;-34
2024/02/06 09:10:40;;;;;;;2.53;1.90;;;21.60;42.70;;;;;;5131102;27;20057;-33
2024/02/06 09:13:06;;;;;;;3.35;2.10;;;21.60;42.70;;;;;;5129722;27;20053;-35
2024/02/06 09:15:32;;;;;;;2.67;1.90;;;21.60;42.70;;;;;;5131595;27;20059;-36
2024/02/06 09:18:00;;;;;;;2.72;1.90;;;21.60;42.70;;;;;;5133088;27;20035;-37
2024/02/06 09:20:27;;;;;;;3.05;2.05;;;21.50;42.70;;;;;;5132346;27;20031;-34
2024/02/06 09:22:53;;;;;;;3.45;1.88;;;21.60;42.60;;;;;;5129659;27;20035;-33
2024/02/06 09:25:19;;;;;;;3.03;1.90;;;21.60;42.60;;;;;;5128605;27;20026;-35
2024/02/06 09:27:45;;;;;;;3.13;1.70;;;21.60;42.60;;;;;;5124178;27;20043;-34
2024/02/06 09:30:12;;;;;;;2.50;1.83;;;21.60;42.60;;;;;;5129163;27;20221;-36
2024/02/06 09:32:39;;;;;;;2.17;1.77;;;21.50;42.60;;;;;;5130121;27;20065;-35
2024/02/06 09:35:06;;;;;;;2.40;1.90;;;21.50;42.60;;;;;;5129795;27;20028;-35
2024/02/06 09:37:33;;;;;;;1.63;1.40;;;21.60;42.60;;;;;;5137636;27;20110;-35
2024/02/06 09:40:00;;;;;;;2.83;2.15;;;21.50;42.50;;;;;;5136161;27;20031;-32
2024/02/06 09:42:26;;;;;;;2.95;2.20;;;21.60;42.50;;;;;;5133784;27;20019;-36
2024/02/06 09:44:52;;;;;;;3.13;2.40;;;21.60;42.60;;;;;;5139927;27;20027;-37
2024/02/06 09:47:18;;;;;;;2.28;2.00;;;21.50;42.60;;;;;;5143822;27;20755;-35
2024/02/06 09:49:45;;;;;;;3.90;1.95;;;21.50;42.50;;;;;;5138068;27;20039;-34
2024/02/06 09:52:11;;;;;;;2.87;2.27;;;21.50;42.70;;;;;;5136103;27;20404;-33
2024/02/06 09:54:39;;;;;;;2.17;1.95;;;21.60;42.70;;;;;;5129360;27;20058;-35
2024/02/06 09:57:05;;;;;;;2.95;2.10;;;21.60;42.60;;;;;;5111843;27;20031;-35
2024/02/06 09:59:32;;;;;;;2.45;1.95;;;21.50;42.60;;;;;;5114704;28;20030;-32
2024/02/06 10:01:58;;;;;;;3.00;2.00;;;21.50;42.60;;;;;;5143758;27;20028;-34
2024/02/06 10:04:28;;;;;;;2.33;1.92;;;21.50;42.60;;;;;;5128380;27;20135;-39
2024/02/06 10:06:54;;;;;;;3.60;2.10;;;21.50;42.50;;;;;;5132511;27;20114;-33
2024/02/06 10:09:20;;;;;;;3.00;2.15;;;21.60;42.50;;;;;;5129664;27;20035;-36
2024/02/06 10:11:46;;;;;;;2.80;2.00;;;21.60;42.50;;;;;;5128817;27;20035;-33
2024/02/06 10:14:12;;;;;;;2.60;2.10;;;21.60;42.50;;;;;;5129848;27;20028;-36
2024/02/06 10:16:40;;;;;;;3.90;2.30;;;21.50;42.50;;;;;;5152741;27;20037;-33
2024/02/06 10:19:07;;;;;;;13.23;2.25;;;21.50;42.40;;;;;;5135157;27;20097;-34
2024/02/06 10:21:33;;;;;;;3.67;1.80;;;21.50;42.40;;;;;;5131408;27;20047;-35
2024/02/06 10:24:04;;;;;;;5.10;2.30;;;21.60;42.50;;;;;;5116448;27;20034;-32
2024/02/06 10:26:33;;;;;;;3.72;2.15;;;21.60;42.50;;;;;;5129460;27;20032;-34
2024/02/06 10:29:19;;;;;;;4.15;2.20;;;21.60;42.50;;;;;;5126777;27;20039;-34
2024/02/06 10:31:45;;;;;;;4.35;1.90;;;21.50;42.50;;;;;;5124873;27;20039;-33
2024/02/06 10:34:12;;;;;;;9.95;2.30;;;21.60;42.50;;;;;;5131837;27;20106;-34
2024/02/06 10:36:41;;;;;;;4.03;2.20;;;21.60;42.50;;;;;;5135576;27;20038;-34
2024/02/06 10:39:10;;;;;;;4.22;2.20;;;21.60;42.50;;;;;;5129529;27;20147;-34
2024/02/06 10:41:36;;;;;;;2.58;2.00;;;21.60;42.40;;;;;;5133965;27;20023;-35
2024/02/06 10:44:11;;;;;;;3.15;2.13;;;21.60;42.50;;;;;;5141058;27;20470;-32
2024/02/06 10:46:39;;;;;;;2.20;1.52;;;21.50;42.50;;;;;;5137325;27;20037;-36
2024/02/06 10:49:05;;;;;;;4.25;2.17;;;21.50;42.40;;;;;;5134427;28;20035;-33
2024/02/06 10:51:33;;;;;;;3.35;2.00;;;21.50;42.40;;;;;;5140616;27;20243;-36
2024/02/06 10:54:01;;;;;;;2.70;1.95;;;21.60;42.40;;;;;;5135560;28;20039;-36
2024/02/06 10:56:27;;;;;;;2.55;1.83;;;21.60;42.30;;;;;;5115870;27;20046;-36
2024/02/06 10:58:57;;;;;;;2.97;2.22;;;21.60;42.30;;;;;;5148563;27;20715;-38
2024/02/06 11:01:30;;;;;;;3.92;1.88;;;21.50;42.40;;;;;;5132155;28;20703;-34
2024/02/06 11:03:57;;;;;;;2.67;1.88;;;21.60;42.40;;;;;;5140367;28;20126;-34
2024/02/06 11:06:30;;;;;;;2.25;1.70;;;21.50;42.30;;;;;;5132319;27;20015;-32
2024/02/06 11:08:57;;;;;;;2.47;1.80;;;21.60;42.30;;;;;;5114293;27;20039;-33
2024/02/06 11:11:23;;;;;;;;;;;21.60;42.20;;;;;;5134980;27;20034;-35
2024/02/06 11:13:50;;;;;;;2.28;1.80;;;21.50;42.20;;;;;;5118933;28;20773;-33
2024/02/06 11:16:18;;;;;;;2.90;2.03;;;21.50;42.30;;;;;;5118224;27;20678;-36
2024/02/06 11:19:11;;;;;;;2.08;1.65;;;21.50;42.20;;;;;;5136302;27;20039;-35
2024/02/06 11:21:43;;;;;;;3.28;2.03;;;21.50;42.20;;;;;;5079949;28;20031;-33
2024/02/06 11:24:10;;;;;;;2.30;1.70;;;21.60;42.10;;;;;;5136285;28;20024;-32
2024/02/06 11:26:39;;;;;;;3.08;2.00;;;21.50;42.20;;;;;;5118942;27;20030;-33
2024/02/06 11:29:07;;;;;;;2.97;1.85;;;21.50;42.20;;;;;;5150537;27;20036;-34
2024/02/06 11:31:35;;;;;;;2.83;1.75;;;21.50;42.30;;;;;;5136920;27;20032;-37
2024/02/06 11:34:13;;;;;;;1.90;1.67;;;21.50;42.30;;;;;;5137835;27;20024;-36
2024/02/06 11:36:42;;;;;;;2.25;1.80;;;21.50;42.30;;;;;;5139395;27;20767;-34
2024/02/06 11:39:09;;;;;;;2.95;1.83;;;21.60;42.30;;;;;;5117634;27;20024;-35
2024/02/06 11:41:36;;;;;;;3.35;1.95;;;21.50;42.30;;;;;;5138739;27;20031;-38
2024/02/06 11:44:10;;;;;;;3.22;1.50;;;21.50;42.30;;;;;;5134648;27;20330;-36
2024/02/06 11:46:46;;;;;;;2.30;1.83;;;21.50;42.30;;;;;;5129212;27;20035;-38
2024/02/06 11:49:13;;;;;;;2.63;1.90;;;21.50;42.20;;;;;;5140643;27;20034;-38
2024/02/06 11:51:39;;;;;;;2.53;2.13;;;21.50;42.10;;;;;;5133324;27;20028;-33
2024/02/06 11:54:16;;;;;;;2.58;1.90;;;21.50;42.10;;;;;;5131037;27;20300;-37
2024/02/06 11:56:42;;;;;;;2.55;1.52;;;21.50;42.10;;;;;;5137491;27;20023;-33
2024/02/06 11:59:09;;;;;;;2.50;1.83;;;21.50;42.20;;;;;;5141841;27;20034;-33
2024/02/06 12:01:35;;;;;;;3.92;1.80;;;21.50;42.20;;;;;;5134354;27;20091;-36
2024/02/06 12:04:04;;;;;;;2.40;1.80;;;21.50;42.10;;;;;;5132512;27;20035;-34
2024/02/06 12:06:30;;;;;;;2.85;1.77;;;21.50;42.10;;;;;;5138598;27;20019;-30
2024/02/06 12:09:08;;;;;;;1.83;1.50;;;21.50;42.00;;;;;;5139917;27;20031;-33
2024/02/06 12:11:43;;;;;;;;;;;21.50;42.00;;;;;;5141642;27;20152;-33
2024/02/06 12:14:16;;;;;;;2.30;1.88;;;21.50;42.10;;;;;;5116085;27;19912;-37
2024/02/06 12:16:42;;;;;;;3.35;1.88;;;21.40;42.10;;;;;;5130329;27;20095;-32
2024/02/06 12:19:09;;;;;;;2.77;1.97;;;21.40;42.10;;;;;;5141763;27;20027;-31
2024/02/06 12:21:35;;;;;;;2.30;1.65;;;21.50;42.00;;;;;;5118957;27;20272;-35
2024/02/06 12:24:05;;;;;;;2.22;1.75;;;21.50;42.00;;;;;;5143404;27;20118;-37
2024/02/06 12:26:32;;;;;;;2.08;1.50;;;21.50;42.00;;;;;;5121427;27;20023;-34
2024/02/06 12:29:02;;;;;;;2.20;1.65;;;21.50;42.00;;;;;;5132057;27;20035;-34
2024/02/06 12:31:29;;;;;;;3.20;1.95;;;21.40;42.00;;;;;;5138625;27;20116;-36
2024/02/06 12:33:55;;;;;;;2.10;1.67;;;21.40;42.10;;;;;;5136682;27;20065;-35
2024/02/06 12:36:22;;;;;;;2.53;1.90;;;21.40;42.00;;;;;;5138621;27;20027;-34
2024/02/06 12:38:52;;;;;;;2.63;1.70;;;21.50;42.00;;;;;;5141732;27;20031;-34
2024/02/06 12:41:19;;;;;;;2.78;1.80;;;21.60;42.00;;;;;;5122503;27;20484;-32
2024/02/06 12:43:52;;;;;;;2.40;1.80;;;21.50;42.00;;;;;;5135376;27;20059;-32
2024/02/06 12:46:18;;;;;;;2.40;1.88;;;21.50;42.00;;;;;;5129437;27;20027;-36